sensor_id;sensor_type;location;lat;lon;timestamp;temperature;humidity
52459;DHT22;38372;52.902;6.024;2023-04-03T00:02:08;2.60;99.90
52459;DHT22;38372;52.902;6.024;2023-04-03T00:04:34;2.70;99.90
52459;DHT22;38372;52.902;6.024;2023-04-03T00:07:00;2.60;99.90
52459;DHT22;38372;52.902;6.024;2023-04-03T00:09:26;2.60;99.90
52459;DHT22;38372;52.902;6.024;2023-04-03T00:11:52;2.60;99.90
52459;DHT22;38372;52.902;6.024;2023-04-03T00:14:17;2.50;99.90
52459;DHT22;38372;52.902;6.024;2023-04-03T00:16:43;2.50;99.90
52459;DHT22;38372;52.902;6.024;2023-04-03T00:19:09;2.40;99.90
52459;DHT22;38372;52.902;6.024;2023-04-03T00:21:37;2.40;99.90
52459;DHT22;38372;52.902;6.024;2023-04-03T00:24:03;2.40;99.90
52459;DHT22;38372;52.902;6.024;2023-04-03T00:26:29;2.40;99.90
52459;DHT22;38372;52.902;6.024;2023-04-03T00:28:55;2.40;99.90
52459;DHT22;38372;52.902;6.024;2023-04-03T00:31:21;2.30;99.90
52459;DHT22;38372;52.902;6.024;2023-04-03T00:33:47;2.30;99.90
52459;DHT22;38372;52.902;6.024;2023-04-03T00:36:13;2.20;99.90
52459;DHT22;38372;52.902;6.024;2023-04-03T00:38:39;2.20;99.90
52459;DHT22;38372;52.902;6.024;2023-04-03T00:41:05;2.10;99.90
52459;DHT22;38372;52.902;6.024;2023-04-03T00:43:31;2.00;99.90
52459;DHT22;38372;52.902;6.024;2023-04-03T00:45:58;1.90;99.90
52459;DHT22;38372;52.902;6.024;2023-04-03T00:48:36;1.80;99.90
52459;DHT22;38372;52.902;6.024;2023-04-03T00:51:06;1.70;99.90
52459;DHT22;38372;52.902;6.024;2023-04-03T00:53:50;1.70;99.90
52459;DHT22;38372;52.902;6.024;2023-04-03T00:56:20;1.70;99.90
52459;DHT22;38372;52.902;6.024;2023-04-03T00:58:51;1.70;99.90
52459;DHT22;38372;52.902;6.024;2023-04-03T01:01:23;1.70;99.90
52459;DHT22;38372;52.902;6.024;2023-04-03T01:03:49;1.70;99.90
52459;DHT22;38372;52.902;6.024;2023-04-03T01:06:17;1.70;99.90
52459;DHT22;38372;52.902;6.024;2023-04-03T01:08:45;1.70;99.90
52459;DHT22;38372;52.902;6.024;2023-04-03T01:11:14;1.70;99.90
52459;DHT22;38372;52.902;6.024;2023-04-03T01:13:39;1.70;99.90
52459;DHT22;38372;52.902;6.024;2023-04-03T01:16:06;1.70;99.90
52459;DHT22;38372;52.902;6.024;2023-04-03T01:18:34;1.70;99.90
52459;DHT22;38372;52.902;6.024;2023-04-03T01:21:36;1.70;99.90
52459;DHT22;38372;52.902;6.024;2023-04-03T01:27:09;1.70;99.90
52459;DHT22;38372;52.902;6.024;2023-04-03T01:29:36;1.70;99.90
52459;DHT22;38372;52.902;6.024;2023-04-03T01:32:03;1.60;99.90
52459;DHT22;38372;52.902;6.024;2023-04-03T01:34:30;1.60;99.90
52459;DHT22;38372;52.902;6.024;2023-04-03T01:36:56;1.50;99.90
52459;DHT22;38372;52.902;6.024;2023-04-03T01:39:22;1.50;99.90
52459;DHT22;38372;52.902;6.024;2023-04-03T01:41:48;1.50;99.90
52459;DHT22;38372;52.902;6.024;2023-04-03T01:44:14;1.40;99.90
52459;DHT22;38372;52.902;6.024;2023-04-03T01:46:40;1.30;99.90
52459;DHT22;38372;52.902;6.024;2023-04-03T01:49:07;1.30;99.90
52459;DHT22;38372;52.902;6.024;2023-04-03T01:51:33;1.30;99.90
52459;DHT22;38372;52.902;6.024;2023-04-03T01:53:59;1.30;99.90
52459;DHT22;38372;52.902;6.024;2023-04-03T01:56:25;1.30;99.90
52459;DHT22;38372;52.902;6.024;2023-04-03T01:58:51;1.40;99.90
52459;DHT22;38372;52.902;6.024;2023-04-03T02:01:17;1.40;99.90
52459;DHT22;38372;52.902;6.024;2023-04-03T02:03:43;1.40;99.90
52459;DHT22;38372;52.902;6.024;2023-04-03T02:06:09;1.40;99.90
52459;DHT22;38372;52.902;6.024;2023-04-03T02:08:35;1.40;99.90
52459;DHT22;38372;52.902;6.024;2023-04-03T02:11:01;1.40;99.90
52459;DHT22;38372;52.902;6.024;2023-04-03T02:13:27;1.30;99.90
52459;DHT22;38372;52.902;6.024;2023-04-03T02:15:52;1.30;99.90
52459;DHT22;38372;52.902;6.024;2023-04-03T02:18:18;1.30;99.90
52459;DHT22;38372;52.902;6.024;2023-04-03T02:20:45;1.30;99.90
52459;DHT22;38372;52.902;6.024;2023-04-03T02:23:11;1.20;99.90
52459;DHT22;38372;52.902;6.024;2023-04-03T02:25:37;1.20;99.90
52459;DHT22;38372;52.902;6.024;2023-04-03T02:28:03;1.20;99.90
52459;DHT22;38372;52.902;6.024;2023-04-03T02:30:29;1.20;99.90
52459;DHT22;38372;52.902;6.024;2023-04-03T02:32:54;1.20;99.90
52459;DHT22;38372;52.902;6.024;2023-04-03T02:35:21;1.20;99.90
52459;DHT22;38372;52.902;6.024;2023-04-03T02:37:47;1.10;99.90
52459;DHT22;38372;52.902;6.024;2023-04-03T02:40:13;1.10;99.90
52459;DHT22;38372;52.902;6.024;2023-04-03T02:42:39;1.10;99.90
52459;DHT22;38372;52.902;6.024;2023-04-03T02:45:05;1.10;99.90
52459;DHT22;38372;52.902;6.024;2023-04-03T02:47:31;1.10;99.90
52459;DHT22;38372;52.902;6.024;2023-04-03T02:49:57;1.20;99.90
52459;DHT22;38372;52.902;6.024;2023-04-03T02:52:22;1.20;99.90
52459;DHT22;38372;52.902;6.024;2023-04-03T02:54:48;1.20;99.90
52459;DHT22;38372;52.902;6.024;2023-04-03T02:57:14;1.20;99.90
52459;DHT22;38372;52.902;6.024;2023-04-03T02:59:40;1.20;99.90
52459;DHT22;38372;52.902;6.024;2023-04-03T03:02:09;1.20;99.90
52459;DHT22;38372;52.902;6.024;2023-04-03T03:04:36;1.10;99.90
52459;DHT22;38372;52.902;6.024;2023-04-03T03:07:02;1.10;99.90
52459;DHT22;38372;52.902;6.024;2023-04-03T03:09:28;1.10;99.90
52459;DHT22;38372;52.902;6.024;2023-04-03T03:11:55;1.10;99.90
52459;DHT22;38372;52.902;6.024;2023-04-03T03:14:21;1.10;99.90
52459;DHT22;38372;52.902;6.024;2023-04-03T03:16:47;1.10;99.90
52459;DHT22;38372;52.902;6.024;2023-04-03T03:19:13;1.10;99.90
52459;DHT22;38372;52.902;6.024;2023-04-03T03:21:38;1.00;99.90
52459;DHT22;38372;52.902;6.024;2023-04-03T03:24:04;1.00;99.90
52459;DHT22;38372;52.902;6.024;2023-04-03T03:26:31;0.90;99.90
52459;DHT22;38372;52.902;6.024;2023-04-03T03:28:56;0.90;99.90
52459;DHT22;38372;52.902;6.024;2023-04-03T03:31:22;0.90;99.90
52459;DHT22;38372;52.902;6.024;2023-04-03T03:33:48;0.90;99.90
52459;DHT22;38372;52.902;6.024;2023-04-03T03:36:14;0.90;99.90
52459;DHT22;38372;52.902;6.024;2023-04-03T03:38:39;0.80;99.90
52459;DHT22;38372;52.902;6.024;2023-04-03T03:41:05;0.80;99.90
52459;DHT22;38372;52.902;6.024;2023-04-03T03:43:31;0.80;99.90
52459;DHT22;38372;52.902;6.024;2023-04-03T03:45:57;0.70;99.90
52459;DHT22;38372;52.902;6.024;2023-04-03T03:48:23;0.70;99.90
52459;DHT22;38372;52.902;6.024;2023-04-03T03:50:49;0.70;99.90
52459;DHT22;38372;52.902;6.024;2023-04-03T03:53:15;0.60;99.90
52459;DHT22;38372;52.902;6.024;2023-04-03T03:55:41;0.60;99.90
52459;DHT22;38372;52.902;6.024;2023-04-03T03:58:07;0.50;99.90
52459;DHT22;38372;52.902;6.024;2023-04-03T04:00:33;0.50;99.90
52459;DHT22;38372;52.902;6.024;2023-04-03T04:02:59;0.40;99.90
52459;DHT22;38372;52.902;6.024;2023-04-03T04:05:26;0.40;99.90
52459;DHT22;38372;52.902;6.024;2023-04-03T04:07:52;0.30;99.90
52459;DHT22;38372;52.902;6.024;2023-04-03T04:10:17;0.30;99.90
52459;DHT22;38372;52.902;6.024;2023-04-03T04:12:43;0.30;99.90
52459;DHT22;38372;52.902;6.024;2023-04-03T04:15:09;0.20;99.90
52459;DHT22;38372;52.902;6.024;2023-04-03T04:17:35;0.10;99.90
52459;DHT22;38372;52.902;6.024;2023-04-03T04:20:03;-0.10;99.90
52459;DHT22;38372;52.902;6.024;2023-04-03T04:22:30;-0.20;99.90
52459;DHT22;38372;52.902;6.024;2023-04-03T04:24:56;-0.30;99.90
52459;DHT22;38372;52.902;6.024;2023-04-03T04:27:22;-0.40;99.90
52459;DHT22;38372;52.902;6.024;2023-04-03T04:29:48;-0.40;99.90
52459;DHT22;38372;52.902;6.024;2023-04-03T04:32:13;-0.50;99.90
52459;DHT22;38372;52.902;6.024;2023-04-03T04:34:39;-0.50;99.90
52459;DHT22;38372;52.902;6.024;2023-04-03T04:37:05;-0.50;99.90
52459;DHT22;38372;52.902;6.024;2023-04-03T04:39:31;-0.60;99.90
52459;DHT22;38372;52.902;6.024;2023-04-03T04:41:57;-0.60;99.90
52459;DHT22;38372;52.902;6.024;2023-04-03T04:44:23;-0.60;99.90
52459;DHT22;38372;52.902;6.024;2023-04-03T04:46:48;-0.60;99.90
52459;DHT22;38372;52.902;6.024;2023-04-03T04:49:14;-0.60;99.90
52459;DHT22;38372;52.902;6.024;2023-04-03T04:51:40;-0.60;99.90
52459;DHT22;38372;52.902;6.024;2023-04-03T04:54:06;-0.50;99.90
52459;DHT22;38372;52.902;6.024;2023-04-03T04:56:32;-0.50;99.90
52459;DHT22;38372;52.902;6.024;2023-04-03T04:58:57;-0.40;99.90
52459;DHT22;38372;52.902;6.024;2023-04-03T05:01:23;-0.40;99.90
52459;DHT22;38372;52.902;6.024;2023-04-03T05:03:49;-0.30;99.90
52459;DHT22;38372;52.902;6.024;2023-04-03T05:06:15;-0.30;99.90
52459;DHT22;38372;52.902;6.024;2023-04-03T05:08:40;-0.30;99.90
52459;DHT22;38372;52.902;6.024;2023-04-03T05:11:06;-0.40;99.90
52459;DHT22;38372;52.902;6.024;2023-04-03T05:13:32;-0.40;99.90
52459;DHT22;38372;52.902;6.024;2023-04-03T05:15:58;-0.40;99.90
52459;DHT22;38372;52.902;6.024;2023-04-03T05:18:24;-0.50;99.90
52459;DHT22;38372;52.902;6.024;2023-04-03T05:20:50;-0.50;99.90
52459;DHT22;38372;52.902;6.024;2023-04-03T05:23:16;-0.60;99.90
52459;DHT22;38372;52.902;6.024;2023-04-03T05:25:42;-0.70;99.90
52459;DHT22;38372;52.902;6.024;2023-04-03T05:28:11;-0.70;99.90
52459;DHT22;38372;52.902;6.024;2023-04-03T05:30:37;-0.70;99.90
52459;DHT22;38372;52.902;6.024;2023-04-03T05:33:02;-0.80;99.90
52459;DHT22;38372;52.902;6.024;2023-04-03T05:35:28;-0.70;99.90
52459;DHT22;38372;52.902;6.024;2023-04-03T05:37:54;-0.70;99.90
52459;DHT22;38372;52.902;6.024;2023-04-03T05:40:20;-0.70;99.90
52459;DHT22;38372;52.902;6.024;2023-04-03T05:42:46;-0.60;99.90
52459;DHT22;38372;52.902;6.024;2023-04-03T05:45:12;-0.50;99.90
52459;DHT22;38372;52.902;6.024;2023-04-03T05:47:38;-0.40;99.90
52459;DHT22;38372;52.902;6.024;2023-04-03T05:50:04;-0.30;99.90
52459;DHT22;38372;52.902;6.024;2023-04-03T05:52:35;-0.10;99.90
52459;DHT22;38372;52.902;6.024;2023-04-03T05:55:01;0.00;99.90
52459;DHT22;38372;52.902;6.024;2023-04-03T05:57:27;0.00;99.90
52459;DHT22;38372;52.902;6.024;2023-04-03T05:59:53;0.10;99.90
52459;DHT22;38372;52.902;6.024;2023-04-03T06:02:21;0.20;99.90
52459;DHT22;38372;52.902;6.024;2023-04-03T06:04:47;0.20;99.90
52459;DHT22;38372;52.902;6.024;2023-04-03T06:07:18;0.30;99.90
52459;DHT22;38372;52.902;6.024;2023-04-03T06:09:47;0.40;99.90
52459;DHT22;38372;52.902;6.024;2023-04-03T06:12:13;0.40;99.90
52459;DHT22;38372;52.902;6.024;2023-04-03T06:14:39;0.50;99.90
52459;DHT22;38372;52.902;6.024;2023-04-03T06:17:06;0.60;99.90
52459;DHT22;38372;52.902;6.024;2023-04-03T06:19:33;0.70;99.90
52459;DHT22;38372;52.902;6.024;2023-04-03T06:21:59;0.90;99.90
52459;DHT22;38372;52.902;6.024;2023-04-03T06:24:26;1.20;99.90
52459;DHT22;38372;52.902;6.024;2023-04-03T06:26:52;1.70;99.90
52459;DHT22;38372;52.902;6.024;2023-04-03T06:29:19;2.30;99.90
52459;DHT22;38372;52.902;6.024;2023-04-03T06:31:45;2.70;99.90
52459;DHT22;38372;52.902;6.024;2023-04-03T06:34:12;3.10;99.90
52459;DHT22;38372;52.902;6.024;2023-04-03T06:36:38;3.40;99.90
52459;DHT22;38372;52.902;6.024;2023-04-03T06:39:04;3.70;99.90
52459;DHT22;38372;52.902;6.024;2023-04-03T06:41:30;3.90;99.90
52459;DHT22;38372;52.902;6.024;2023-04-03T06:43:57;4.10;99.90
52459;DHT22;38372;52.902;6.024;2023-04-03T06:46:24;4.30;99.90
52459;DHT22;38372;52.902;6.024;2023-04-03T06:48:51;4.40;99.90
52459;DHT22;38372;52.902;6.024;2023-04-03T06:51:23;4.50;99.90
52459;DHT22;38372;52.902;6.024;2023-04-03T06:53:50;4.80;99.90
52459;DHT22;38372;52.902;6.024;2023-04-03T06:56:17;4.80;99.90
52459;DHT22;38372;52.902;6.024;2023-04-03T06:58:44;4.90;99.90
52459;DHT22;38372;52.902;6.024;2023-04-03T07:01:12;5.00;99.90
52459;DHT22;38372;52.902;6.024;2023-04-03T07:03:38;5.20;99.90
52459;DHT22;38372;52.902;6.024;2023-04-03T07:06:05;5.20;99.90
52459;DHT22;38372;52.902;6.024;2023-04-03T07:08:33;5.20;99.90
52459;DHT22;38372;52.902;6.024;2023-04-03T07:10:59;5.20;99.90
52459;DHT22;38372;52.902;6.024;2023-04-03T07:13:25;5.10;99.90
52459;DHT22;38372;52.902;6.024;2023-04-03T07:15:51;5.00;99.90
52459;DHT22;38372;52.902;6.024;2023-04-03T07:18:16;5.00;99.90
52459;DHT22;38372;52.902;6.024;2023-04-03T07:20:43;5.00;99.90
52459;DHT22;38372;52.902;6.024;2023-04-03T07:23:09;5.00;99.90
52459;DHT22;38372;52.902;6.024;2023-04-03T07:25:36;4.80;99.90
52459;DHT22;38372;52.902;6.024;2023-04-03T07:28:02;4.70;99.90
52459;DHT22;38372;52.902;6.024;2023-04-03T07:30:27;4.60;99.90
52459;DHT22;38372;52.902;6.024;2023-04-03T07:32:53;4.60;99.90
52459;DHT22;38372;52.902;6.024;2023-04-03T07:35:19;4.60;99.90
52459;DHT22;38372;52.902;6.024;2023-04-03T07:37:45;4.60;99.90
52459;DHT22;38372;52.902;6.024;2023-04-03T07:40:12;4.70;99.90
52459;DHT22;38372;52.902;6.024;2023-04-03T07:42:38;4.80;99.90
52459;DHT22;38372;52.902;6.024;2023-04-03T07:45:04;5.10;99.90
52459;DHT22;38372;52.902;6.024;2023-04-03T07:47:30;5.40;99.90
52459;DHT22;38372;52.902;6.024;2023-04-03T07:49:57;5.60;99.90
52459;DHT22;38372;52.902;6.024;2023-04-03T07:52:23;5.70;99.90
52459;DHT22;38372;52.902;6.024;2023-04-03T07:54:49;5.90;99.90
52459;DHT22;38372;52.902;6.024;2023-04-03T07:57:15;5.90;99.90
52459;DHT22;38372;52.902;6.024;2023-04-03T07:59:41;6.10;99.90
52459;DHT22;38372;52.902;6.024;2023-04-03T08:02:12;6.30;99.90
52459;DHT22;38372;52.902;6.024;2023-04-03T08:04:38;6.40;99.90
52459;DHT22;38372;52.902;6.024;2023-04-03T08:07:04;6.50;99.90
52459;DHT22;38372;52.902;6.024;2023-04-03T08:09:30;6.60;99.90
52459;DHT22;38372;52.902;6.024;2023-04-03T08:11:57;6.80;99.90
52459;DHT22;38372;52.902;6.024;2023-04-03T08:14:23;7.10;99.90
52459;DHT22;38372;52.902;6.024;2023-04-03T08:16:49;7.30;99.90
52459;DHT22;38372;52.902;6.024;2023-04-03T08:19:16;7.70;99.90
52459;DHT22;38372;52.902;6.024;2023-04-03T08:21:44;8.10;99.90
52459;DHT22;38372;52.902;6.024;2023-04-03T08:24:10;8.50;99.90
52459;DHT22;38372;52.902;6.024;2023-04-03T08:26:36;8.80;99.90
52459;DHT22;38372;52.902;6.024;2023-04-03T08:29:03;9.10;99.90
52459;DHT22;38372;52.902;6.024;2023-04-03T08:31:29;9.30;99.90
52459;DHT22;38372;52.902;6.024;2023-04-03T08:33:56;9.30;99.90
52459;DHT22;38372;52.902;6.024;2023-04-03T08:36:25;9.60;99.90
52459;DHT22;38372;52.902;6.024;2023-04-03T08:38:52;10.00;99.90
52459;DHT22;38372;52.902;6.024;2023-04-03T08:51:58;11.10;99.90
52459;DHT22;38372;52.902;6.024;2023-04-03T08:54:32;11.10;99.90
52459;DHT22;38372;52.902;6.024;2023-04-03T08:57:02;11.10;99.90
52459;DHT22;38372;52.902;6.024;2023-04-03T08:59:29;11.30;99.80
52459;DHT22;38372;52.902;6.024;2023-04-03T09:01:58;11.30;97.10
52459;DHT22;38372;52.902;6.024;2023-04-03T09:04:28;11.30;95.80
52459;DHT22;38372;52.902;6.024;2023-04-03T09:07:16;11.40;96.70
52459;DHT22;38372;52.902;6.024;2023-04-03T09:09:45;11.60;95.10
52459;DHT22;38372;52.902;6.024;2023-04-03T09:15:18;12.10;96.40
52459;DHT22;38372;52.902;6.024;2023-04-03T09:17:47;12.40;98.10
52459;DHT22;38372;52.902;6.024;2023-04-03T09:26:16;12.70;92.60
52459;DHT22;38372;52.902;6.024;2023-04-03T09:28:43;12.80;92.30
52459;DHT22;38372;52.902;6.024;2023-04-03T09:31:22;13.10;94.20
52459;DHT22;38372;52.902;6.024;2023-04-03T09:34:01;13.10;92.40
52459;DHT22;38372;52.902;6.024;2023-04-03T09:39:12;13.50;92.90
52459;DHT22;38372;52.902;6.024;2023-04-03T09:41:38;13.40;91.40
52459;DHT22;38372;52.902;6.024;2023-04-03T09:44:21;13.50;91.80
52459;DHT22;38372;52.902;6.024;2023-04-03T09:46:47;13.80;91.30
52459;DHT22;38372;52.902;6.024;2023-04-03T09:49:13;14.10;92.80
52459;DHT22;38372;52.902;6.024;2023-04-03T09:51:39;14.20;90.40
52459;DHT22;38372;52.902;6.024;2023-04-03T09:56:56;14.80;90.80
52459;DHT22;38372;52.902;6.024;2023-04-03T09:59:23;15.00;84.70
52459;DHT22;38372;52.902;6.024;2023-04-03T10:01:59;15.20;87.30
52459;DHT22;38372;52.902;6.024;2023-04-03T10:04:25;15.10;84.90
52459;DHT22;38372;52.902;6.024;2023-04-03T10:06:53;15.20;79.20
52459;DHT22;38372;52.902;6.024;2023-04-03T10:09:28;15.30;83.00
52459;DHT22;38372;52.902;6.024;2023-04-03T10:12:05;15.40;72.60
52459;DHT22;38372;52.902;6.024;2023-04-03T10:14:37;15.20;80.60
52459;DHT22;38372;52.902;6.024;2023-04-03T10:19:55;15.00;78.30
52459;DHT22;38372;52.902;6.024;2023-04-03T10:25:24;14.90;74.00
52459;DHT22;38372;52.902;6.024;2023-04-03T10:41:49;14.80;69.60
52459;DHT22;38372;52.902;6.024;2023-04-03T10:47:16;15.20;73.50
52459;DHT22;38372;52.902;6.024;2023-04-03T10:57:47;14.60;65.70
52459;DHT22;38372;52.902;6.024;2023-04-03T11:00:16;14.50;63.40
52459;DHT22;38372;52.902;6.024;2023-04-03T11:02:57;14.50;64.60
52459;DHT22;38372;52.902;6.024;2023-04-03T11:05:43;14.60;64.80
52459;DHT22;38372;52.902;6.024;2023-04-03T11:08:19;14.90;64.60
52459;DHT22;38372;52.902;6.024;2023-04-03T11:10:50;14.90;59.40
52459;DHT22;38372;52.902;6.024;2023-04-03T11:13:40;14.80;65.00
52459;DHT22;38372;52.902;6.024;2023-04-03T11:16:08;14.90;62.60
52459;DHT22;38372;52.902;6.024;2023-04-03T11:18:48;14.90;62.20
52459;DHT22;38372;52.902;6.024;2023-04-03T11:21:37;14.90;64.20
52459;DHT22;38372;52.902;6.024;2023-04-03T11:24:27;14.90;60.20
52459;DHT22;38372;52.902;6.024;2023-04-03T11:26:55;14.90;66.30
52459;DHT22;38372;52.902;6.024;2023-04-03T11:29:29;15.00;63.90
52459;DHT22;38372;52.902;6.024;2023-04-03T11:34:37;14.30;55.20
52459;DHT22;38372;52.902;6.024;2023-04-03T11:37:31;13.80;56.10
52459;DHT22;38372;52.902;6.024;2023-04-03T11:40:02;13.80;58.40
52459;DHT22;38372;52.902;6.024;2023-04-03T11:47:49;13.70;59.50
52459;DHT22;38372;52.902;6.024;2023-04-03T11:56:00;13.30;58.00
52459;DHT22;38372;52.902;6.024;2023-04-03T11:58:28;13.40;56.40
52459;DHT22;38372;52.902;6.024;2023-04-03T12:01:06;13.30;57.00
52459;DHT22;38372;52.902;6.024;2023-04-03T12:27:09;13.00;58.30
52459;DHT22;38372;52.902;6.024;2023-04-03T12:29:50;13.10;58.30
52459;DHT22;38372;52.902;6.024;2023-04-03T12:45:53;12.80;58.20
52459;DHT22;38372;52.902;6.024;2023-04-03T12:48:26;12.70;57.30
52459;DHT22;38372;52.902;6.024;2023-04-03T12:50:54;12.70;60.30
52459;DHT22;38372;52.902;6.024;2023-04-03T12:53:26;12.60;60.50
52459;DHT22;38372;52.902;6.024;2023-04-03T12:55:57;12.60;60.10
52459;DHT22;38372;52.902;6.024;2023-04-03T12:58:42;12.60;62.30
52459;DHT22;38372;52.902;6.024;2023-04-03T13:01:16;12.50;60.40
52459;DHT22;38372;52.902;6.024;2023-04-03T13:03:57;12.50;59.90
52459;DHT22;38372;52.902;6.024;2023-04-03T13:06:27;12.40;62.00
52459;DHT22;38372;52.902;6.024;2023-04-03T13:08:56;12.30;61.60
52459;DHT22;38372;52.902;6.024;2023-04-03T13:11:23;12.40;62.20
52459;DHT22;38372;52.902;6.024;2023-04-03T13:13:59;12.40;61.20
52459;DHT22;38372;52.902;6.024;2023-04-03T13:16:26;12.40;64.10
52459;DHT22;38372;52.902;6.024;2023-04-03T13:18:53;12.50;63.50
52459;DHT22;38372;52.902;6.024;2023-04-03T13:21:29;12.50;61.00
52459;DHT22;38372;52.902;6.024;2023-04-03T13:23:58;12.50;61.50
52459;DHT22;38372;52.902;6.024;2023-04-03T13:26:28;12.30;61.20
52459;DHT22;38372;52.902;6.024;2023-04-03T13:28:56;12.40;62.30
52459;DHT22;38372;52.902;6.024;2023-04-03T13:31:30;12.60;67.40
52459;DHT22;38372;52.902;6.024;2023-04-03T13:33:58;12.80;63.60
52459;DHT22;38372;52.902;6.024;2023-04-03T13:36:44;12.70;58.00
52459;DHT22;38372;52.902;6.024;2023-04-03T13:41:38;12.80;58.70
52459;DHT22;38372;52.902;6.024;2023-04-03T13:46:54;12.60;61.90
52459;DHT22;38372;52.902;6.024;2023-04-03T13:49:36;12.60;63.60
52459;DHT22;38372;52.902;6.024;2023-04-03T13:52:27;12.70;64.70
52459;DHT22;38372;52.902;6.024;2023-04-03T13:54:59;13.20;60.20
52459;DHT22;38372;52.902;6.024;2023-04-03T13:57:27;13.20;62.30
52459;DHT22;38372;52.902;6.024;2023-04-03T13:59:53;13.80;59.80
52459;DHT22;38372;52.902;6.024;2023-04-03T14:02:30;14.20;58.60
52459;DHT22;38372;52.902;6.024;2023-04-03T14:04:59;13.90;58.10
52459;DHT22;38372;52.902;6.024;2023-04-03T14:07:28;14.30;59.50
52459;DHT22;38372;52.902;6.024;2023-04-03T14:09:55;14.90;59.80
52459;DHT22;38372;52.902;6.024;2023-04-03T14:12:36;14.60;59.20
52459;DHT22;38372;52.902;6.024;2023-04-03T14:15:07;14.70;62.30
52459;DHT22;38372;52.902;6.024;2023-04-03T14:17:37;14.60;60.30
52459;DHT22;38372;52.902;6.024;2023-04-03T14:20:03;14.00;58.40
52459;DHT22;38372;52.902;6.024;2023-04-03T14:22:31;13.60;59.20
52459;DHT22;38372;52.902;6.024;2023-04-03T14:24:58;13.30;60.70
52459;DHT22;38372;52.902;6.024;2023-04-03T14:27:29;13.20;61.30
52459;DHT22;38372;52.902;6.024;2023-04-03T14:29:56;13.10;61.00
52459;DHT22;38372;52.902;6.024;2023-04-03T14:32:24;12.90;61.80
52459;DHT22;38372;52.902;6.024;2023-04-03T14:34:51;12.80;60.80
52459;DHT22;38372;52.902;6.024;2023-04-03T14:37:20;12.60;60.60
52459;DHT22;38372;52.902;6.024;2023-04-03T14:39:52;12.40;62.50
52459;DHT22;38372;52.902;6.024;2023-04-03T14:42:25;12.20;62.20
52459;DHT22;38372;52.902;6.024;2023-04-03T14:44:52;12.10;62.60
52459;DHT22;38372;52.902;6.024;2023-04-03T14:47:23;12.30;61.70
52459;DHT22;38372;52.902;6.024;2023-04-03T14:49:49;12.50;60.90
52459;DHT22;38372;52.902;6.024;2023-04-03T14:52:20;12.40;62.20
52459;DHT22;38372;52.902;6.024;2023-04-03T14:54:47;12.30;62.20
52459;DHT22;38372;52.902;6.024;2023-04-03T14:57:15;12.10;58.60
52459;DHT22;38372;52.902;6.024;2023-04-03T14:59:41;12.20;60.10
52459;DHT22;38372;52.902;6.024;2023-04-03T15:02:29;12.00;60.50
52459;DHT22;38372;52.902;6.024;2023-04-03T15:04:56;11.90;61.60
52459;DHT22;38372;52.902;6.024;2023-04-03T15:07:24;12.30;61.80
52459;DHT22;38372;52.902;6.024;2023-04-03T15:09:50;12.80;63.30
52459;DHT22;38372;52.902;6.024;2023-04-03T15:12:17;13.40;59.40
52459;DHT22;38372;52.902;6.024;2023-04-03T15:14:42;13.40;58.50
52459;DHT22;38372;52.902;6.024;2023-04-03T15:17:19;13.00;58.40
52459;DHT22;38372;52.902;6.024;2023-04-03T15:19:46;12.90;57.70
52459;DHT22;38372;52.902;6.024;2023-04-03T15:22:18;13.10;59.80
52459;DHT22;38372;52.902;6.024;2023-04-03T15:24:44;13.10;60.50
52459;DHT22;38372;52.902;6.024;2023-04-03T15:27:12;13.30;60.90
52459;DHT22;38372;52.902;6.024;2023-04-03T15:29:39;13.50;61.20
52459;DHT22;38372;52.902;6.024;2023-04-03T15:32:05;13.50;59.90
52459;DHT22;38372;52.902;6.024;2023-04-03T15:34:32;13.30;58.40
52459;DHT22;38372;52.902;6.024;2023-04-03T15:36:57;12.90;59.30
52459;DHT22;38372;52.902;6.024;2023-04-03T15:39:25;12.70;62.40
52459;DHT22;38372;52.902;6.024;2023-04-03T15:41:51;12.50;61.00
52459;DHT22;38372;52.902;6.024;2023-04-03T15:44:20;12.60;60.70
52459;DHT22;38372;52.902;6.024;2023-04-03T15:46:47;13.20;59.60
52459;DHT22;38372;52.902;6.024;2023-04-03T15:49:14;13.70;57.30
52459;DHT22;38372;52.902;6.024;2023-04-03T15:51:41;14.00;56.90
52459;DHT22;38372;52.902;6.024;2023-04-03T15:54:07;14.20;55.40
52459;DHT22;38372;52.902;6.024;2023-04-03T15:56:32;14.90;57.50
52459;DHT22;38372;52.902;6.024;2023-04-03T15:58:58;15.70;57.20
52459;DHT22;38372;52.902;6.024;2023-04-03T16:01:24;15.70;56.20
52459;DHT22;38372;52.902;6.024;2023-04-03T16:03:50;15.40;55.90
52459;DHT22;38372;52.902;6.024;2023-04-03T16:06:16;15.10;57.60
52459;DHT22;38372;52.902;6.024;2023-04-03T16:08:44;14.90;58.70
52459;DHT22;38372;52.902;6.024;2023-04-03T16:11:11;15.00;57.80
52459;DHT22;38372;52.902;6.024;2023-04-03T16:13:37;15.00;54.90
52459;DHT22;38372;52.902;6.024;2023-04-03T16:16:04;14.80;55.10
52459;DHT22;38372;52.902;6.024;2023-04-03T16:18:40;14.70;55.50
52459;DHT22;38372;52.902;6.024;2023-04-03T16:21:06;14.50;55.50
52459;DHT22;38372;52.902;6.024;2023-04-03T16:23:33;14.40;55.20
52459;DHT22;38372;52.902;6.024;2023-04-03T16:26:03;14.60;57.60
52459;DHT22;38372;52.902;6.024;2023-04-03T16:28:29;15.00;58.60
52459;DHT22;38372;52.902;6.024;2023-04-03T16:30:54;15.10;57.70
52459;DHT22;38372;52.902;6.024;2023-04-03T16:33:20;14.40;56.50
52459;DHT22;38372;52.902;6.024;2023-04-03T16:35:48;13.40;58.70
52459;DHT22;38372;52.902;6.024;2023-04-03T16:38:14;12.70;59.40
52459;DHT22;38372;52.902;6.024;2023-04-03T16:40:41;12.40;58.70
52459;DHT22;38372;52.902;6.024;2023-04-03T16:43:06;12.90;60.10
52459;DHT22;38372;52.902;6.024;2023-04-03T16:45:32;13.40;58.70
52459;DHT22;38372;52.902;6.024;2023-04-03T16:47:58;13.70;56.70
52459;DHT22;38372;52.902;6.024;2023-04-03T16:50:24;13.70;58.00
52459;DHT22;38372;52.902;6.024;2023-04-03T16:52:50;13.50;59.20
52459;DHT22;38372;52.902;6.024;2023-04-03T16:55:16;13.10;60.40
52459;DHT22;38372;52.902;6.024;2023-04-03T16:57:41;12.80;61.10
52459;DHT22;38372;52.902;6.024;2023-04-03T17:00:08;12.20;61.60
52459;DHT22;38372;52.902;6.024;2023-04-03T17:02:34;11.60;63.00
52459;DHT22;38372;52.902;6.024;2023-04-03T17:04:59;11.20;64.10
52459;DHT22;38372;52.902;6.024;2023-04-03T17:07:26;10.90;63.90
52459;DHT22;38372;52.902;6.024;2023-04-03T17:09:52;10.60;64.70
52459;DHT22;38372;52.902;6.024;2023-04-03T17:12:20;10.30;65.60
52459;DHT22;38372;52.902;6.024;2023-04-03T17:14:46;10.00;65.40
52459;DHT22;38372;52.902;6.024;2023-04-03T17:17:13;9.70;66.00
52459;DHT22;38372;52.902;6.024;2023-04-03T17:19:40;9.50;66.80
52459;DHT22;38372;52.902;6.024;2023-04-03T17:22:08;9.20;67.50
52459;DHT22;38372;52.902;6.024;2023-04-03T17:24:35;9.00;68.50
52459;DHT22;38372;52.902;6.024;2023-04-03T17:27:02;8.80;69.60
52459;DHT22;38372;52.902;6.024;2023-04-03T17:29:28;8.70;69.90
52459;DHT22;38372;52.902;6.024;2023-04-03T17:31:53;8.60;70.30
52459;DHT22;38372;52.902;6.024;2023-04-03T17:34:19;8.40;71.00
52459;DHT22;38372;52.902;6.024;2023-04-03T17:36:45;8.30;71.80
52459;DHT22;38372;52.902;6.024;2023-04-03T17:39:11;8.10;74.20